sensor_id;sensor_type;location;lat;lon;timestamp;temperature;humidity
19050;DHT22;9657;45.940;12.840;2023-08-21T00:00:56;32.70;54.30
19050;DHT22;9657;45.940;12.840;2023-08-21T00:03:24;32.70;54.20
19050;DHT22;9657;45.940;12.840;2023-08-21T00:05:51;32.70;54.20
19050;DHT22;9657;45.940;12.840;2023-08-21T00:08:18;32.70;54.20
19050;DHT22;9657;45.940;12.840;2023-08-21T00:10:45;32.70;54.10
19050;DHT22;9657;45.940;12.840;2023-08-21T00:13:13;32.70;54.10
19050;DHT22;9657;45.940;12.840;2023-08-21T00:15:40;32.70;54.10
19050;DHT22;9657;45.940;12.840;2023-08-21T00:18:07;32.70;54.00
19050;DHT22;9657;45.940;12.840;2023-08-21T00:20:37;32.70;54.00
19050;DHT22;9657;45.940;12.840;2023-08-21T00:23:04;32.70;54.00
19050;DHT22;9657;45.940;12.840;2023-08-21T00:25:31;32.60;53.90
19050;DHT22;9657;45.940;12.840;2023-08-21T00:27:58;32.60;53.80
19050;DHT22;9657;45.940;12.840;2023-08-21T00:30:27;32.60;53.80
19050;DHT22;9657;45.940;12.840;2023-08-21T00:32:54;32.60;53.70
19050;DHT22;9657;45.940;12.840;2023-08-21T00:35:21;32.60;53.70
19050;DHT22;9657;45.940;12.840;2023-08-21T00:37:48;32.60;53.70
19050;DHT22;9657;45.940;12.840;2023-08-21T00:40:15;32.60;53.60
19050;DHT22;9657;45.940;12.840;2023-08-21T00:42:42;32.60;53.60
19050;DHT22;9657;45.940;12.840;2023-08-21T00:45:09;32.60;53.60
19050;DHT22;9657;45.940;12.840;2023-08-21T00:47:38;32.60;53.60
19050;DHT22;9657;45.940;12.840;2023-08-21T00:50:07;32.60;53.60
19050;DHT22;9657;45.940;12.840;2023-08-21T00:52:35;32.60;53.50
19050;DHT22;9657;45.940;12.840;2023-08-21T00:55:03;32.60;53.60
19050;DHT22;9657;45.940;12.840;2023-08-21T00:57:30;32.60;53.50
19050;DHT22;9657;45.940;12.840;2023-08-21T01:00:00;32.60;53.50
19050;DHT22;9657;45.940;12.840;2023-08-21T01:05:08;32.50;53.40
19050;DHT22;9657;45.940;12.840;2023-08-21T01:07:45;32.60;53.50
19050;DHT22;9657;45.940;12.840;2023-08-21T01:10:22;32.60;53.50
19050;DHT22;9657;45.940;12.840;2023-08-21T01:12:56;32.60;53.40
19050;DHT22;9657;45.940;12.840;2023-08-21T01:15:26;32.60;53.50
19050;DHT22;9657;45.940;12.840;2023-08-21T01:17:54;32.50;53.40
19050;DHT22;9657;45.940;12.840;2023-08-21T01:20:23;32.60;53.40
19050;DHT22;9657;45.940;12.840;2023-08-21T01:22:50;32.60;53.40
19050;DHT22;9657;45.940;12.840;2023-08-21T01:25:19;32.60;53.40
19050;DHT22;9657;45.940;12.840;2023-08-21T01:27:48;32.60;53.50
19050;DHT22;9657;45.940;12.840;2023-08-21T01:30:17;32.50;53.40
19050;DHT22;9657;45.940;12.840;2023-08-21T01:32:51;32.60;53.40
19050;DHT22;9657;45.940;12.840;2023-08-21T01:35:20;32.50;53.40
19050;DHT22;9657;45.940;12.840;2023-08-21T01:37:48;32.50;53.40
19050;DHT22;9657;45.940;12.840;2023-08-21T01:40:21;32.50;53.40
19050;DHT22;9657;45.940;12.840;2023-08-21T01:42:48;32.50;53.40
19050;DHT22;9657;45.940;12.840;2023-08-21T01:45:15;32.50;53.40
19050;DHT22;9657;45.940;12.840;2023-08-21T01:47:42;32.50;53.40
19050;DHT22;9657;45.940;12.840;2023-08-21T01:50:09;32.50;53.40
19050;DHT22;9657;45.940;12.840;2023-08-21T01:52:36;32.50;53.40
19050;DHT22;9657;45.940;12.840;2023-08-21T01:55:05;32.50;53.50
19050;DHT22;9657;45.940;12.840;2023-08-21T01:57:34;32.50;53.40
19050;DHT22;9657;45.940;12.840;2023-08-21T02:00:02;32.50;53.40
19050;DHT22;9657;45.940;12.840;2023-08-21T02:02:30;32.50;53.40
19050;DHT22;9657;45.940;12.840;2023-08-21T02:04:57;32.50;53.40
19050;DHT22;9657;45.940;12.840;2023-08-21T02:07:24;32.50;53.40
19050;DHT22;9657;45.940;12.840;2023-08-21T02:09:51;32.50;53.40
19050;DHT22;9657;45.940;12.840;2023-08-21T02:12:18;32.50;53.40
19050;DHT22;9657;45.940;12.840;2023-08-21T02:14:46;32.50;53.40
19050;DHT22;9657;45.940;12.840;2023-08-21T02:17:14;32.50;53.50
19050;DHT22;9657;45.940;12.840;2023-08-21T02:19:41;32.50;53.50
19050;DHT22;9657;45.940;12.840;2023-08-21T02:22:08;32.40;53.40
19050;DHT22;9657;45.940;12.840;2023-08-21T02:24:35;32.50;53.40
19050;DHT22;9657;45.940;12.840;2023-08-21T02:27:02;32.40;53.40
19050;DHT22;9657;45.940;12.840;2023-08-21T02:29:30;32.50;53.50
19050;DHT22;9657;45.940;12.840;2023-08-21T02:31:58;32.40;53.40
19050;DHT22;9657;45.940;12.840;2023-08-21T02:34:25;32.40;53.40
19050;DHT22;9657;45.940;12.840;2023-08-21T02:36:53;32.40;53.40
19050;DHT22;9657;45.940;12.840;2023-08-21T02:39:20;32.40;53.40
19050;DHT22;9657;45.940;12.840;2023-08-21T02:41:47;32.40;53.40
19050;DHT22;9657;45.940;12.840;2023-08-21T02:44:14;32.40;53.40
19050;DHT22;9657;45.940;12.840;2023-08-21T02:46:41;32.40;53.40
19050;DHT22;9657;45.940;12.840;2023-08-21T02:49:09;32.40;53.40
19050;DHT22;9657;45.940;12.840;2023-08-21T02:51:36;32.40;53.40
19050;DHT22;9657;45.940;12.840;2023-08-21T02:54:03;32.40;54.10
19050;DHT22;9657;45.940;12.840;2023-08-21T02:56:30;32.40;53.40
19050;DHT22;9657;45.940;12.840;2023-08-21T02:58:57;32.40;53.40
19050;DHT22;9657;45.940;12.840;2023-08-21T03:01:24;32.40;53.40
19050;DHT22;9657;45.940;12.840;2023-08-21T03:03:51;32.40;53.40
19050;DHT22;9657;45.940;12.840;2023-08-21T03:06:20;32.40;53.40
19050;DHT22;9657;45.940;12.840;2023-08-21T03:08:47;32.40;53.40
19050;DHT22;9657;45.940;12.840;2023-08-21T03:11:14;32.40;53.50
19050;DHT22;9657;45.940;12.840;2023-08-21T03:13:41;32.40;53.50
19050;DHT22;9657;45.940;12.840;2023-08-21T03:16:08;32.40;53.40
19050;DHT22;9657;45.940;12.840;2023-08-21T03:18:54;32.40;53.50
19050;DHT22;9657;45.940;12.840;2023-08-21T03:21:22;32.40;53.40
19050;DHT22;9657;45.940;12.840;2023-08-21T03:23:51;32.30;53.40
19050;DHT22;9657;45.940;12.840;2023-08-21T03:26:18;32.40;53.50
19050;DHT22;9657;45.940;12.840;2023-08-21T03:28:45;32.40;53.50
19050;DHT22;9657;45.940;12.840;2023-08-21T03:31:12;32.40;53.50
19050;DHT22;9657;45.940;12.840;2023-08-21T03:33:39;32.40;53.50
19050;DHT22;9657;45.940;12.840;2023-08-21T03:36:07;32.30;53.40
19050;DHT22;9657;45.940;12.840;2023-08-21T03:38:35;32.40;53.50
19050;DHT22;9657;45.940;12.840;2023-08-21T03:41:02;32.30;53.40
19050;DHT22;9657;45.940;12.840;2023-08-21T03:43:30;32.30;53.40
19050;DHT22;9657;45.940;12.840;2023-08-21T03:45:58;32.30;53.40
19050;DHT22;9657;45.940;12.840;2023-08-21T03:48:25;32.30;53.40
19050;DHT22;9657;45.940;12.840;2023-08-21T03:50:52;32.30;53.40
19050;DHT22;9657;45.940;12.840;2023-08-21T03:53:19;32.30;53.40
19050;DHT22;9657;45.940;12.840;2023-08-21T03:55:47;32.30;53.40
19050;DHT22;9657;45.940;12.840;2023-08-21T03:58:14;32.30;53.40
19050;DHT22;9657;45.940;12.840;2023-08-21T04:00:41;32.30;53.40
19050;DHT22;9657;45.940;12.840;2023-08-21T04:03:09;32.30;53.40
19050;DHT22;9657;45.940;12.840;2023-08-21T04:05:36;32.30;53.40
19050;DHT22;9657;45.940;12.840;2023-08-21T04:08:04;32.20;53.40
19050;DHT22;9657;45.940;12.840;2023-08-21T04:10:31;32.30;53.40
19050;DHT22;9657;45.940;12.840;2023-08-21T04:12:59;32.30;53.40
19050;DHT22;9657;45.940;12.840;2023-08-21T04:15:26;32.30;53.50
19050;DHT22;9657;45.940;12.840;2023-08-21T04:17:53;32.30;53.50
19050;DHT22;9657;45.940;12.840;2023-08-21T04:20:21;32.20;53.40
19050;DHT22;9657;45.940;12.840;2023-08-21T04:22:48;32.20;54.10
19050;DHT22;9657;45.940;12.840;2023-08-21T04:25:15;32.20;54.10
19050;DHT22;9657;45.940;12.840;2023-08-21T04:27:43;32.20;53.40
19050;DHT22;9657;45.940;12.840;2023-08-21T04:30:12;32.20;53.50
19050;DHT22;9657;45.940;12.840;2023-08-21T04:32:39;32.20;53.50
19050;DHT22;9657;45.940;12.840;2023-08-21T04:35:07;32.20;53.50
19050;DHT22;9657;45.940;12.840;2023-08-21T04:37:37;32.20;53.50
19050;DHT22;9657;45.940;12.840;2023-08-21T04:40:05;32.20;53.50
19050;DHT22;9657;45.940;12.840;2023-08-21T04:42:32;32.20;53.50
19050;DHT22;9657;45.940;12.840;2023-08-21T04:44:59;32.20;53.50
19050;DHT22;9657;45.940;12.840;2023-08-21T04:47:29;32.20;53.50
19050;DHT22;9657;45.940;12.840;2023-08-21T04:49:56;32.20;53.50
19050;DHT22;9657;45.940;12.840;2023-08-21T04:52:24;32.20;53.60
19050;DHT22;9657;45.940;12.840;2023-08-21T04:54:51;32.20;53.60
19050;DHT22;9657;45.940;12.840;2023-08-21T04:57:19;32.20;53.60
19050;DHT22;9657;45.940;12.840;2023-08-21T04:59:46;32.20;53.60
19050;DHT22;9657;45.940;12.840;2023-08-21T05:02:14;32.20;53.60
19050;DHT22;9657;45.940;12.840;2023-08-21T05:04:42;32.20;53.70
19050;DHT22;9657;45.940;12.840;2023-08-21T05:07:09;32.20;53.60
19050;DHT22;9657;45.940;12.840;2023-08-21T05:09:36;32.20;53.70
19050;DHT22;9657;45.940;12.840;2023-08-21T05:12:04;32.20;53.70
19050;DHT22;9657;45.940;12.840;2023-08-21T05:14:31;32.20;53.70
19050;DHT22;9657;45.940;12.840;2023-08-21T05:16:58;32.20;53.70
19050;DHT22;9657;45.940;12.840;2023-08-21T05:19:25;32.20;53.80
19050;DHT22;9657;45.940;12.840;2023-08-21T05:21:54;32.20;53.70
19050;DHT22;9657;45.940;12.840;2023-08-21T05:24:21;32.20;53.70
19050;DHT22;9657;45.940;12.840;2023-08-21T05:26:48;32.20;53.80
19050;DHT22;9657;45.940;12.840;2023-08-21T05:29:15;32.20;53.80
19050;DHT22;9657;45.940;12.840;2023-08-21T05:31:42;32.20;53.80
19050;DHT22;9657;45.940;12.840;2023-08-21T05:34:09;32.20;53.80
19050;DHT22;9657;45.940;12.840;2023-08-21T05:36:36;32.20;53.80
19050;DHT22;9657;45.940;12.840;2023-08-21T05:39:05;32.20;53.90
19050;DHT22;9657;45.940;12.840;2023-08-21T05:41:32;32.10;53.70
19050;DHT22;9657;45.940;12.840;2023-08-21T05:44:00;32.10;53.70
19050;DHT22;9657;45.940;12.840;2023-08-21T05:46:27;32.20;53.90
19050;DHT22;9657;45.940;12.840;2023-08-21T05:48:54;32.20;53.80
19050;DHT22;9657;45.940;12.840;2023-08-21T05:51:21;32.10;53.70
19050;DHT22;9657;45.940;12.840;2023-08-21T05:53:48;32.20;53.90
19050;DHT22;9657;45.940;12.840;2023-08-21T05:56:16;32.10;53.80
19050;DHT22;9657;45.940;12.840;2023-08-21T05:58:43;32.10;53.80
19050;DHT22;9657;45.940;12.840;2023-08-21T06:01:11;32.20;53.90
19050;DHT22;9657;45.940;12.840;2023-08-21T06:03:38;32.10;53.80
19050;DHT22;9657;45.940;12.840;2023-08-21T06:06:05;32.10;53.80
19050;DHT22;9657;45.940;12.840;2023-08-21T06:08:32;32.10;53.80
19050;DHT22;9657;45.940;12.840;2023-08-21T06:10:59;32.10;53.80
19050;DHT22;9657;45.940;12.840;2023-08-21T06:13:27;32.10;53.80
19050;DHT22;9657;45.940;12.840;2023-08-21T06:15:54;32.10;53.90
19050;DHT22;9657;45.940;12.840;2023-08-21T06:18:22;32.10;53.90
19050;DHT22;9657;45.940;12.840;2023-08-21T06:20:49;32.10;53.90
19050;DHT22;9657;45.940;12.840;2023-08-21T06:23:19;32.10;53.90
19050;DHT22;9657;45.940;12.840;2023-08-21T06:25:47;32.10;53.90
19050;DHT22;9657;45.940;12.840;2023-08-21T06:28:15;32.10;53.90
19050;DHT22;9657;45.940;12.840;2023-08-21T06:30:44;32.10;54.00
19050;DHT22;9657;45.940;12.840;2023-08-21T06:33:11;32.10;53.90
19050;DHT22;9657;45.940;12.840;2023-08-21T06:35:38;32.10;54.00
19050;DHT22;9657;45.940;12.840;2023-08-21T06:38:05;32.10;54.00
19050;DHT22;9657;45.940;12.840;2023-08-21T06:40:32;32.10;53.90
19050;DHT22;9657;45.940;12.840;2023-08-21T06:42:59;32.10;54.00
19050;DHT22;9657;45.940;12.840;2023-08-21T06:45:26;32.10;54.00
19050;DHT22;9657;45.940;12.840;2023-08-21T06:47:57;32.10;54.00
19050;DHT22;9657;45.940;12.840;2023-08-21T06:50:24;32.10;54.00
19050;DHT22;9657;45.940;12.840;2023-08-21T06:52:51;32.10;54.00
19050;DHT22;9657;45.940;12.840;2023-08-21T06:55:19;32.10;54.00
19050;DHT22;9657;45.940;12.840;2023-08-21T06:57:46;32.10;54.00
19050;DHT22;9657;45.940;12.840;2023-08-21T07:00:13;32.10;54.00
19050;DHT22;9657;45.940;12.840;2023-08-21T07:02:40;32.10;54.00
19050;DHT22;9657;45.940;12.840;2023-08-21T07:05:09;32.10;54.00
19050;DHT22;9657;45.940;12.840;2023-08-21T07:07:36;32.10;54.00
19050;DHT22;9657;45.940;12.840;2023-08-21T07:10:03;32.10;54.00
19050;DHT22;9657;45.940;12.840;2023-08-21T07:12:31;32.10;54.10
19050;DHT22;9657;45.940;12.840;2023-08-21T07:14:58;32.10;54.00
19050;DHT22;9657;45.940;12.840;2023-08-21T07:17:25;32.10;54.00
19050;DHT22;9657;45.940;12.840;2023-08-21T07:19:52;32.10;54.10
19050;DHT22;9657;45.940;12.840;2023-08-21T07:22:20;32.10;54.10
19050;DHT22;9657;45.940;12.840;2023-08-21T07:24:47;32.10;54.10
19050;DHT22;9657;45.940;12.840;2023-08-21T07:27:14;32.10;54.10
19050;DHT22;9657;45.940;12.840;2023-08-21T07:29:41;32.10;54.10
19050;DHT22;9657;45.940;12.840;2023-08-21T07:32:08;32.10;54.10
19050;DHT22;9657;45.940;12.840;2023-08-21T07:34:36;32.10;54.10
19050;DHT22;9657;45.940;12.840;2023-08-21T07:37:03;32.10;54.10
19050;DHT22;9657;45.940;12.840;2023-08-21T07:39:31;32.10;54.10
19050;DHT22;9657;45.940;12.840;2023-08-21T07:41:58;32.10;54.10
19050;DHT22;9657;45.940;12.840;2023-08-21T07:44:26;32.10;54.10
19050;DHT22;9657;45.940;12.840;2023-08-21T07:46:53;32.10;54.10
19050;DHT22;9657;45.940;12.840;2023-08-21T07:49:20;32.10;54.10
19050;DHT22;9657;45.940;12.840;2023-08-21T07:51:47;32.10;54.10
19050;DHT22;9657;45.940;12.840;2023-08-21T07:54:14;32.10;54.10
19050;DHT22;9657;45.940;12.840;2023-08-21T07:56:42;32.10;54.20
19050;DHT22;9657;45.940;12.840;2023-08-21T07:59:09;32.10;54.20
19050;DHT22;9657;45.940;12.840;2023-08-21T08:01:36;32.10;54.20
19050;DHT22;9657;45.940;12.840;2023-08-21T08:04:04;32.10;54.20
19050;DHT22;9657;45.940;12.840;2023-08-21T08:06:32;32.10;54.20
19050;DHT22;9657;45.940;12.840;2023-08-21T08:08:59;32.10;54.20
19050;DHT22;9657;45.940;12.840;2023-08-21T08:11:26;32.10;54.20
19050;DHT22;9657;45.940;12.840;2023-08-21T08:13:54;32.10;54.20
19050;DHT22;9657;45.940;12.840;2023-08-21T08:16:22;32.10;54.20
19050;DHT22;9657;45.940;12.840;2023-08-21T08:18:49;32.10;54.20
19050;DHT22;9657;45.940;12.840;2023-08-21T08:21:16;32.10;54.20
19050;DHT22;9657;45.940;12.840;2023-08-21T08:23:43;32.10;54.20
19050;DHT22;9657;45.940;12.840;2023-08-21T08:26:10;32.10;54.20
19050;DHT22;9657;45.940;12.840;2023-08-21T08:28:37;32.10;54.20
19050;DHT22;9657;45.940;12.840;2023-08-21T08:31:05;32.10;54.20
19050;DHT22;9657;45.940;12.840;2023-08-21T08:33:32;32.20;54.20
19050;DHT22;9657;45.940;12.840;2023-08-21T08:35:59;32.10;54.20
19050;DHT22;9657;45.940;12.840;2023-08-21T08:38:26;32.10;54.20
19050;DHT22;9657;45.940;12.840;2023-08-21T08:40:55;32.10;54.20
19050;DHT22;9657;45.940;12.840;2023-08-21T08:43:25;32.20;54.20
19050;DHT22;9657;45.940;12.840;2023-08-21T08:45:53;32.20;54.20
19050;DHT22;9657;45.940;12.840;2023-08-21T08:48:23;32.20;54.30
19050;DHT22;9657;45.940;12.840;2023-08-21T08:50:52;32.10;54.20
19050;DHT22;9657;45.940;12.840;2023-08-21T08:53:19;32.10;54.20
19050;DHT22;9657;45.940;12.840;2023-08-21T08:55:46;32.20;54.20
19050;DHT22;9657;45.940;12.840;2023-08-21T08:58:15;32.20;54.20
19050;DHT22;9657;45.940;12.840;2023-08-21T09:00:42;32.20;54.20
19050;DHT22;9657;45.940;12.840;2023-08-21T09:03:09;32.20;54.20
19050;DHT22;9657;45.940;12.840;2023-08-21T09:05:39;32.20;54.10
19050;DHT22;9657;45.940;12.840;2023-08-21T09:08:10;32.20;54.10
19050;DHT22;9657;45.940;12.840;2023-08-21T09:10:38;32.20;54.00
19050;DHT22;9657;45.940;12.840;2023-08-21T09:13:13;32.30;54.00
19050;DHT22;9657;45.940;12.840;2023-08-21T09:15:41;32.30;54.00
19050;DHT22;9657;45.940;12.840;2023-08-21T09:18:09;32.30;54.00
19050;DHT22;9657;45.940;12.840;2023-08-21T09:20:38;32.40;53.90
19050;DHT22;9657;45.940;12.840;2023-08-21T09:23:05;32.40;53.80
19050;DHT22;9657;45.940;12.840;2023-08-21T09:25:37;32.40;53.80
19050;DHT22;9657;45.940;12.840;2023-08-21T09:28:06;32.50;53.80
19050;DHT22;9657;45.940;12.840;2023-08-21T09:30:49;32.50;53.70
19050;DHT22;9657;45.940;12.840;2023-08-21T09:33:20;32.50;53.60
19050;DHT22;9657;45.940;12.840;2023-08-21T09:35:51;32.60;53.50
19050;DHT22;9657;45.940;12.840;2023-08-21T09:38:19;32.60;53.40
19050;DHT22;9657;45.940;12.840;2023-08-21T09:40:51;32.70;53.40
19050;DHT22;9657;45.940;12.840;2023-08-21T09:43:20;32.80;53.20
19050;DHT22;9657;45.940;12.840;2023-08-21T09:45:48;32.80;53.20
19050;DHT22;9657;45.940;12.840;2023-08-21T09:48:16;32.90;53.10
19050;DHT22;9657;45.940;12.840;2023-08-21T09:50:43;33.00;53.10
19050;DHT22;9657;45.940;12.840;2023-08-21T09:53:12;33.10;53.00
19050;DHT22;9657;45.940;12.840;2023-08-21T09:55:40;33.10;52.70
19050;DHT22;9657;45.940;12.840;2023-08-21T09:58:08;33.20;52.70
19050;DHT22;9657;45.940;12.840;2023-08-21T10:00:37;33.20;52.60
19050;DHT22;9657;45.940;12.840;2023-08-21T10:03:07;33.30;52.60
19050;DHT22;9657;45.940;12.840;2023-08-21T10:05:37;33.30;52.40
19050;DHT22;9657;45.940;12.840;2023-08-21T10:08:06;33.40;52.20
19050;DHT22;9657;45.940;12.840;2023-08-21T10:10:36;33.40;52.20
19050;DHT22;9657;45.940;12.840;2023-08-21T10:13:04;33.50;52.20
19050;DHT22;9657;45.940;12.840;2023-08-21T10:15:31;33.50;52.10
19050;DHT22;9657;45.940;12.840;2023-08-21T10:18:17;33.50;52.10
19050;DHT22;9657;45.940;12.840;2023-08-21T10:20:45;33.60;52.10
19050;DHT22;9657;45.940;12.840;2023-08-21T10:23:24;33.60;52.10
19050;DHT22;9657;45.940;12.840;2023-08-21T10:25:56;33.60;52.10
19050;DHT22;9657;45.940;12.840;2023-08-21T10:28:23;33.60;52.10
19050;DHT22;9657;45.940;12.840;2023-08-21T10:30:51;33.60;52.10
19050;DHT22;9657;45.940;12.840;2023-08-21T10:33:48;33.60;52.20
19050;DHT22;9657;45.940;12.840;2023-08-21T10:36:38;33.60;52.30
19050;DHT22;9657;45.940;12.840;2023-08-21T10:39:13;33.60;52.40
19050;DHT22;9657;45.940;12.840;2023-08-21T10:41:53;33.60;52.30
19050;DHT22;9657;45.940;12.840;2023-08-21T10:44:37;33.60;52.40
19050;DHT22;9657;45.940;12.840;2023-08-21T10:47:13;33.60;52.40
19050;DHT22;9657;45.940;12.840;2023-08-21T10:49:44;33.60;52.50
19050;DHT22;9657;45.940;12.840;2023-08-21T10:52:11;33.60;52.60
19050;DHT22;9657;45.940;12.840;2023-08-21T10:54:49;33.50;52.50
19050;DHT22;9657;45.940;12.840;2023-08-21T10:57:16;33.50;52.60
19050;DHT22;9657;45.940;12.840;2023-08-21T10:59:55;33.50;52.50
19050;DHT22;9657;45.940;12.840;2023-08-21T11:02:23;33.50;52.70
19050;DHT22;9657;45.940;12.840;2023-08-21T11:04:52;33.50;52.80
19050;DHT22;9657;45.940;12.840;2023-08-21T11:07:19;33.50;52.70
19050;DHT22;9657;45.940;12.840;2023-08-21T11:09:47;33.40;52.70
19050;DHT22;9657;45.940;12.840;2023-08-21T11:12:16;33.40;52.70
19050;DHT22;9657;45.940;12.840;2023-08-21T11:14:43;33.40;52.70
19050;DHT22;9657;45.940;12.840;2023-08-21T11:17:11;33.40;52.70
19050;DHT22;9657;45.940;12.840;2023-08-21T11:19:39;33.40;52.90
19050;DHT22;9657;45.940;12.840;2023-08-21T11:22:08;33.40;52.80
19050;DHT22;9657;45.940;12.840;2023-08-21T11:24:43;33.40;52.70
19050;DHT22;9657;45.940;12.840;2023-08-21T11:27:12;33.40;52.90
19050;DHT22;9657;45.940;12.840;2023-08-21T11:29:41;33.40;52.80
19050;DHT22;9657;45.940;12.840;2023-08-21T11:32:13;33.40;52.80
19050;DHT22;9657;45.940;12.840;2023-08-21T11:34:41;33.30;52.80
19050;DHT22;9657;45.940;12.840;2023-08-21T11:37:10;33.40;52.90
19050;DHT22;9657;45.940;12.840;2023-08-21T11:39:45;33.40;52.80
19050;DHT22;9657;45.940;12.840;2023-08-21T11:42:13;33.40;52.70
19050;DHT22;9657;45.940;12.840;2023-08-21T11:44:42;33.30;52.60
19050;DHT22;9657;45.940;12.840;2023-08-21T11:47:09;33.30;52.70
19050;DHT22;9657;45.940;12.840;2023-08-21T11:49:37;33.30;52.80
19050;DHT22;9657;45.940;12.840;2023-08-21T11:52:07;33.30;52.80
19050;DHT22;9657;45.940;12.840;2023-08-21T11:54:36;33.30;52.80
19050;DHT22;9657;45.940;12.840;2023-08-21T11:57:05;33.30;53.00
19050;DHT22;9657;45.940;12.840;2023-08-21T11:59:33;33.30;53.00
19050;DHT22;9657;45.940;12.840;2023-08-21T12:02:00;33.30;53.10
19050;DHT22;9657;45.940;12.840;2023-08-21T12:04:27;33.30;53.30
19050;DHT22;9657;45.940;12.840;2023-08-21T12:06:54;33.30;53.30
19050;DHT22;9657;45.940;12.840;2023-08-21T12:09:21;33.30;53.30
19050;DHT22;9657;45.940;12.840;2023-08-21T12:11:50;33.30;53.30
19050;DHT22;9657;45.940;12.840;2023-08-21T12:14:17;33.30;53.30
19050;DHT22;9657;45.940;12.840;2023-08-21T12:16:44;33.30;53.30
19050;DHT22;9657;45.940;12.840;2023-08-21T12:19:11;33.20;53.30
19050;DHT22;9657;45.940;12.840;2023-08-21T12:21:40;33.30;53.30
19050;DHT22;9657;45.940;12.840;2023-08-21T12:24:08;33.30;53.30
19050;DHT22;9657;45.940;12.840;2023-08-21T12:26:35;33.30;53.30
19050;DHT22;9657;45.940;12.840;2023-08-21T12:29:03;33.30;53.40
19050;DHT22;9657;45.940;12.840;2023-08-21T12:31:30;33.30;53.40
19050;DHT22;9657;45.940;12.840;2023-08-21T12:33:57;33.30;53.40
19050;DHT22;9657;45.940;12.840;2023-08-21T12:36:25;33.30;53.30
19050;DHT22;9657;45.940;12.840;2023-08-21T12:38:52;33.30;53.30
19050;DHT22;9657;45.940;12.840;2023-08-21T12:41:19;33.30;53.30
19050;DHT22;9657;45.940;12.840;2023-08-21T12:43:46;33.30;53.30
19050;DHT22;9657;45.940;12.840;2023-08-21T12:46:14;33.30;53.30
19050;DHT22;9657;45.940;12.840;2023-08-21T12:48:41;33.30;53.30
19050;DHT22;9657;45.940;12.840;2023-08-21T12:51:08;33.30;53.10
19050;DHT22;9657;45.940;12.840;2023-08-21T12:53:35;33.30;53.10
19050;DHT22;9657;45.940;12.840;2023-08-21T12:56:03;33.30;53.00
19050;DHT22;9657;45.940;12.840;2023-08-21T12:58:30;33.30;53.00
19050;DHT22;9657;45.940;12.840;2023-08-21T13:00:58;33.20;53.00
19050;DHT22;9657;45.940;12.840;2023-08-21T13:03:27;33.30;53.10
19050;DHT22;9657;45.940;12.840;2023-08-21T13:05:54;33.30;53.10
19050;DHT22;9657;45.940;12.840;2023-08-21T13:08:21;33.30;52.90
19050;DHT22;9657;45.940;12.840;2023-08-21T13:10:48;33.30;52.80
19050;DHT22;9657;45.940;12.840;2023-08-21T13:13:15;33.30;52.90
19050;DHT22;9657;45.940;12.840;2023-08-21T13:15:42;33.30;52.80
19050;DHT22;9657;45.940;12.840;2023-08-21T13:18:10;33.30;52.70
19050;DHT22;9657;45.940;12.840;2023-08-21T13:20:39;33.30;52.70
19050;DHT22;9657;45.940;12.840;2023-08-21T13:23:06;33.30;52.80
19050;DHT22;9657;45.940;12.840;2023-08-21T13:25:34;33.30;52.70
19050;DHT22;9657;45.940;12.840;2023-08-21T13:28:02;33.30;52.80
19050;DHT22;9657;45.940;12.840;2023-08-21T13:30:29;33.30;52.80
19050;DHT22;9657;45.940;12.840;2023-08-21T13:32:57;33.30;52.80
19050;DHT22;9657;45.940;12.840;2023-08-21T13:35:24;33.30;52.80
19050;DHT22;9657;45.940;12.840;2023-08-21T13:37:52;33.20;52.70
19050;DHT22;9657;45.940;12.840;2023-08-21T13:40:19;33.30;52.70
19050;DHT22;9657;45.940;12.840;2023-08-21T13:42:47;33.30;52.80
19050;DHT22;9657;45.940;12.840;2023-08-21T13:45:17;33.30;52.70
19050;DHT22;9657;45.940;12.840;2023-08-21T13:47:47;33.30;52.60
19050;DHT22;9657;45.940;12.840;2023-08-21T13:50:15;33.30;52.60
19050;DHT22;9657;45.940;12.840;2023-08-21T13:52:43;33.20;52.60
19050;DHT22;9657;45.940;12.840;2023-08-21T13:55:12;33.20;52.50
19050;DHT22;9657;45.940;12.840;2023-08-21T13:57:39;33.30;52.50
19050;DHT22;9657;45.940;12.840;2023-08-21T14:00:08;33.20;52.50
19050;DHT22;9657;45.940;12.840;2023-08-21T14:02:38;33.30;52.60
19050;DHT22;9657;45.940;12.840;2023-08-21T14:05:06;33.20;52.60
19050;DHT22;9657;45.940;12.840;2023-08-21T14:07:34;33.20;52.80
19050;DHT22;9657;45.940;12.840;2023-08-21T14:10:02;33.20;52.60
19050;DHT22;9657;45.940;12.840;2023-08-21T14:12:32;33.20;52.60
19050;DHT22;9657;45.940;12.840;2023-08-21T14:14:59;33.30;52.70
19050;DHT22;9657;45.940;12.840;2023-08-21T14:17:27;33.30;52.70
19050;DHT22;9657;45.940;12.840;2023-08-21T14:19:54;33.30;52.70
19050;DHT22;9657;45.940;12.840;2023-08-21T14:22:21;33.20;52.60
19050;DHT22;9657;45.940;12.840;2023-08-21T14:24:48;33.30;52.70
19050;DHT22;9657;45.940;12.840;2023-08-21T14:27:15;33.30;52.70
19050;DHT22;9657;45.940;12.840;2023-08-21T14:29:44;33.30;52.80
19050;DHT22;9657;45.940;12.840;2023-08-21T14:32:11;33.30;52.70
19050;DHT22;9657;45.940;12.840;2023-08-21T14:34:38;33.30;52.70
19050;DHT22;9657;45.940;12.840;2023-08-21T14:37:05;33.30;52.90
19050;DHT22;9657;45.940;12.840;2023-08-21T14:39:32;33.30;52.90
19050;DHT22;9657;45.940;12.840;2023-08-21T14:41:59;33.30;52.90
19050;DHT22;9657;45.940;12.840;2023-08-21T14:44:27;33.30;52.90
19050;DHT22;9657;45.940;12.840;2023-08-21T14:46:56;33.30;52.90
19050;DHT22;9657;45.940;12.840;2023-08-21T14:49:24;33.30;52.90
19050;DHT22;9657;45.940;12.840;2023-08-21T14:51:51;33.30;52.90
19050;DHT22;9657;45.940;12.840;2023-08-21T14:54:18;33.30;53.00
19050;DHT22;9657;45.940;12.840;2023-08-21T14:56:45;33.30;52.80
19050;DHT22;9657;45.940;12.840;2023-08-21T14:59:12;33.30;52.90
19050;DHT22;9657;45.940;12.840;2023-08-21T15:01:40;33.30;52.80
19050;DHT22;9657;45.940;12.840;2023-08-21T15:04:09;33.30;52.80
19050;DHT22;9657;45.940;12.840;2023-08-21T15:06:38;33.30;52.80
19050;DHT22;9657;45.940;12.840;2023-08-21T15:09:05;33.30;52.90
19050;DHT22;9657;45.940;12.840;2023-08-21T15:11:33;33.30;53.10
19050;DHT22;9657;45.940;12.840;2023-08-21T15:14:01;33.30;52.90
19050;DHT22;9657;45.940;12.840;2023-08-21T15:16:29;33.30;52.90
19050;DHT22;9657;45.940;12.840;2023-08-21T15:18:56;33.30;52.90
19050;DHT22;9657;45.940;12.840;2023-08-21T15:21:25;33.30;52.80
19050;DHT22;9657;45.940;12.840;2023-08-21T15:23:52;33.30;52.90
19050;DHT22;9657;45.940;12.840;2023-08-21T15:26:20;33.30;52.80
19050;DHT22;9657;45.940;12.840;2023-08-21T15:28:47;33.40;52.90
19050;DHT22;9657;45.940;12.840;2023-08-21T15:31:14;33.30;52.80
19050;DHT22;9657;45.940;12.840;2023-08-21T15:33:41;33.40;53.00
19050;DHT22;9657;45.940;12.840;2023-08-21T15:36:08;33.40;52.90
19050;DHT22;9657;45.940;12.840;2023-08-21T15:38:37;33.40;53.00